sensor_id;sensor_type;location;lat;lon;timestamp;pressure;altitude;pressure_sealevel;temperature;humidity
15670;BME280;18524;45.190;5.732;2023-02-03T00:02:38;100927.88;;;7.01;64.21
15670;BME280;18524;45.190;5.732;2023-02-03T00:07:29;100932.63;;;6.90;64.62
15670;BME280;18524;45.190;5.732;2023-02-03T00:12:19;100936.34;;;6.59;65.96
15670;BME280;18524;45.190;5.732;2023-02-03T00:17:10;100931.34;;;6.78;65.70
15670;BME280;18524;45.190;5.732;2023-02-03T00:22:00;100937.81;;;6.67;65.83
15670;BME280;18524;45.190;5.732;2023-02-03T00:26:51;100943.13;;;6.88;64.84
15670;BME280;18524;45.190;5.732;2023-02-03T00:31:41;100943.81;;;6.69;65.95
15670;BME280;18524;45.190;5.732;2023-02-03T00:36:31;100940.75;;;6.57;66.67
15670;BME280;18524;45.190;5.732;2023-02-03T00:41:22;100940.41;;;6.67;65.92
15670;BME280;18524;45.190;5.732;2023-02-03T00:46:13;100933.38;;;6.45;66.53
15670;BME280;18524;45.190;5.732;2023-02-03T00:51:04;100937.34;;;6.55;66.46
15670;BME280;18524;45.190;5.732;2023-02-03T00:55:54;100930.38;;;6.31;67.13
15670;BME280;18524;45.190;5.732;2023-02-03T01:00:45;100934.41;;;6.15;68.25
15670;BME280;18524;45.190;5.732;2023-02-03T01:05:35;100927.22;;;5.97;69.27
15670;BME280;18524;45.190;5.732;2023-02-03T01:10:26;100925.03;;;5.83;69.76
15670;BME280;18524;45.190;5.732;2023-02-03T01:15:17;100934.78;;;5.48;71.42
15670;BME280;18524;45.190;5.732;2023-02-03T01:20:08;100932.84;;;5.55;70.90
15670;BME280;18524;45.190;5.732;2023-02-03T01:25:01;100926.38;;;5.40;71.68
15670;BME280;18524;45.190;5.732;2023-02-03T01:29:51;100936.63;;;5.45;71.54
15670;BME280;18524;45.190;5.732;2023-02-03T01:34:42;100936.72;;;5.42;72.03
15670;BME280;18524;45.190;5.732;2023-02-03T01:39:32;100939.78;;;5.54;71.45
15670;BME280;18524;45.190;5.732;2023-02-03T01:44:45;100933.50;;;5.33;72.23
15670;BME280;18524;45.190;5.732;2023-02-03T01:49:38;100939.09;;;5.20;74.06
15670;BME280;18524;45.190;5.732;2023-02-03T01:54:37;100929.59;;;5.19;73.87
15670;BME280;18524;45.190;5.732;2023-02-03T01:59:30;100932.53;;;5.08;74.59
15670;BME280;18524;45.190;5.732;2023-02-03T02:04:25;100924.28;;;5.23;74.68
15670;BME280;18524;45.190;5.732;2023-02-03T02:09:18;100917.63;;;5.43;73.12
15670;BME280;18524;45.190;5.732;2023-02-03T02:14:08;100922.88;;;5.41;73.05
15670;BME280;18524;45.190;5.732;2023-02-03T02:45:53;100940.59;;;5.56;71.84
15670;BME280;18524;45.190;5.732;2023-02-03T02:50:48;100930.47;;;5.47;72.66
15670;BME280;18524;45.190;5.732;2023-02-03T02:55:40;100934.09;;;5.14;74.27
15670;BME280;18524;45.190;5.732;2023-02-03T03:00:34;100940.09;;;4.86;75.25
15670;BME280;18524;45.190;5.732;2023-02-03T03:05:26;100934.25;;;4.78;76.19
15670;BME280;18524;45.190;5.732;2023-02-03T03:10:20;100928.28;;;4.75;77.27
15670;BME280;18524;45.190;5.732;2023-02-03T03:15:19;100932.03;;;4.64;77.33
15670;BME280;18524;45.190;5.732;2023-02-03T03:20:16;100930.34;;;4.63;77.76
15670;BME280;18524;45.190;5.732;2023-02-03T03:25:17;100930.59;;;4.54;78.82
15670;BME280;18524;45.190;5.732;2023-02-03T03:30:10;100924.47;;;4.57;79.11
15670;BME280;18524;45.190;5.732;2023-02-03T03:35:04;100931.69;;;4.77;78.06
15670;BME280;18524;45.190;5.732;2023-02-03T03:40:00;100938.03;;;4.66;77.58
15670;BME280;18524;45.190;5.732;2023-02-03T03:45:00;100941.03;;;4.53;78.66
15670;BME280;18524;45.190;5.732;2023-02-03T03:49:53;100945.88;;;4.65;78.34
15670;BME280;18524;45.190;5.732;2023-02-03T03:54:47;100951.84;;;4.68;78.22
15670;BME280;18524;45.190;5.732;2023-02-03T03:59:40;100957.13;;;4.65;78.17
15670;BME280;18524;45.190;5.732;2023-02-03T04:04:34;100950.75;;;4.46;78.91
15670;BME280;18524;45.190;5.732;2023-02-03T04:09:26;100951.72;;;4.40;78.84
15670;BME280;18524;45.190;5.732;2023-02-03T04:14:17;100957.13;;;4.33;78.79
15670;BME280;18524;45.190;5.732;2023-02-03T04:19:07;100963.81;;;4.09;81.51
15670;BME280;18524;45.190;5.732;2023-02-03T04:23:57;100967.34;;;4.05;82.36
15670;BME280;18524;45.190;5.732;2023-02-03T04:28:48;100962.78;;;3.79;83.48
15670;BME280;18524;45.190;5.732;2023-02-03T04:33:38;100957.59;;;3.79;84.19
15670;BME280;18524;45.190;5.732;2023-02-03T04:38:28;100962.56;;;3.88;84.72
15670;BME280;18524;45.190;5.732;2023-02-03T04:43:19;100964.16;;;3.94;84.10
15670;BME280;18524;45.190;5.732;2023-02-03T04:48:09;100965.75;;;3.99;83.79
15670;BME280;18524;45.190;5.732;2023-02-03T04:53:00;100966.97;;;3.85;84.87
15670;BME280;18524;45.190;5.732;2023-02-03T04:57:54;100963.06;;;4.02;84.33
15670;BME280;18524;45.190;5.732;2023-02-03T05:02:45;100973.47;;;4.02;84.15
15670;BME280;18524;45.190;5.732;2023-02-03T05:07:35;100958.97;;;3.94;84.61
15670;BME280;18524;45.190;5.732;2023-02-03T05:12:25;100950.94;;;3.67;85.77
15670;BME280;18524;45.190;5.732;2023-02-03T05:17:16;100953.81;;;3.92;85.50
15670;BME280;18524;45.190;5.732;2023-02-03T05:22:06;100949.56;;;3.90;85.32
15670;BME280;18524;45.190;5.732;2023-02-03T05:26:56;100944.41;;;3.88;85.24
15670;BME280;18524;45.190;5.732;2023-02-03T05:31:47;100939.06;;;3.94;84.78
15670;BME280;18524;45.190;5.732;2023-02-03T05:36:37;100935.25;;;4.07;83.69
15670;BME280;18524;45.190;5.732;2023-02-03T05:41:28;100923.13;;;4.08;83.55
15670;BME280;18524;45.190;5.732;2023-02-03T05:46:37;100913.59;;;4.08;83.41
15670;BME280;18524;45.190;5.732;2023-02-03T05:51:27;100910.13;;;4.10;84.11
15670;BME280;18524;45.190;5.732;2023-02-03T05:56:17;100921.38;;;4.08;83.90
15670;BME280;18524;45.190;5.732;2023-02-03T06:01:08;100912.50;;;4.19;83.04
15670;BME280;18524;45.190;5.732;2023-02-03T06:05:58;100906.19;;;3.93;83.96
15670;BME280;18524;45.190;5.732;2023-02-03T06:10:48;100904.63;;;3.88;84.24
15670;BME280;18524;45.190;5.732;2023-02-03T06:15:39;100920.84;;;3.60;86.00
15670;BME280;18524;45.190;5.732;2023-02-03T06:20:30;100916.66;;;3.55;86.43
15670;BME280;18524;45.190;5.732;2023-02-03T06:25:20;100931.53;;;3.47;87.24
15670;BME280;18524;45.190;5.732;2023-02-03T06:30:11;100929.00;;;3.45;87.41
15670;BME280;18524;45.190;5.732;2023-02-03T06:35:02;100928.88;;;3.50;87.64
15670;BME280;18524;45.190;5.732;2023-02-03T06:39:52;100945.97;;;3.58;88.01
15670;BME280;18524;45.190;5.732;2023-02-03T06:44:42;100938.06;;;3.63;86.40
15670;BME280;18524;45.190;5.732;2023-02-03T06:49:33;100943.47;;;3.54;85.67
15670;BME280;18524;45.190;5.732;2023-02-03T06:54:23;100949.00;;;3.40;86.31
15670;BME280;18524;45.190;5.732;2023-02-03T06:59:14;100941.22;;;3.40;87.27
15670;BME280;18524;45.190;5.732;2023-02-03T07:04:04;100937.13;;;3.67;85.90
15670;BME280;18524;45.190;5.732;2023-02-03T07:08:56;100953.56;;;3.66;85.37
15670;BME280;18524;45.190;5.732;2023-02-03T07:13:46;100949.84;;;3.40;86.67
15670;BME280;18524;45.190;5.732;2023-02-03T07:18:37;100955.41;;;3.22;88.43
15670;BME280;18524;45.190;5.732;2023-02-03T07:23:27;100973.38;;;3.30;88.68
15670;BME280;18524;45.190;5.732;2023-02-03T07:28:17;100972.41;;;3.37;88.12
15670;BME280;18524;45.190;5.732;2023-02-03T07:33:08;100971.78;;;3.24;89.25
15670;BME280;18524;45.190;5.732;2023-02-03T07:37:58;100964.66;;;3.34;88.32
15670;BME280;18524;45.190;5.732;2023-02-03T07:42:48;100969.28;;;3.60;87.10
15670;BME280;18524;45.190;5.732;2023-02-03T07:47:40;100981.41;;;3.96;85.51
15670;BME280;18524;45.190;5.732;2023-02-03T07:52:30;100999.72;;;3.90;84.83
15670;BME280;18524;45.190;5.732;2023-02-03T07:57:21;101018.09;;;3.81;84.52
15670;BME280;18524;45.190;5.732;2023-02-03T08:02:11;101019.88;;;3.79;85.60
15670;BME280;18524;45.190;5.732;2023-02-03T08:07:02;101038.94;;;3.78;85.57
15670;BME280;18524;45.190;5.732;2023-02-03T08:11:52;101042.91;;;3.93;84.31
15670;BME280;18524;45.190;5.732;2023-02-03T08:16:43;101035.88;;;3.98;84.17
15670;BME280;18524;45.190;5.732;2023-02-03T08:21:33;101035.63;;;4.10;83.97
15670;BME280;18524;45.190;5.732;2023-02-03T08:26:24;101028.72;;;4.07;83.08
15670;BME280;18524;45.190;5.732;2023-02-03T08:31:14;101020.50;;;4.26;83.10
15670;BME280;18524;45.190;5.732;2023-02-03T08:36:05;101006.25;;;4.75;81.50
15670;BME280;18524;45.190;5.732;2023-02-03T08:40:56;101006.63;;;5.24;78.85
15670;BME280;18524;45.190;5.732;2023-02-03T08:45:46;101008.47;;;5.19;76.79
15670;BME280;18524;45.190;5.732;2023-02-03T08:50:36;101011.63;;;4.68;79.04
15670;BME280;18524;45.190;5.732;2023-02-03T08:55:27;101013.38;;;4.68;77.96
15670;BME280;18524;45.190;5.732;2023-02-03T09:00:18;101019.06;;;5.13;77.55
15670;BME280;18524;45.190;5.732;2023-02-03T09:05:09;101019.53;;;5.27;76.50
15670;BME280;18524;45.190;5.732;2023-02-03T09:09:59;101023.47;;;6.00;73.53
15670;BME280;18524;45.190;5.732;2023-02-03T09:14:50;101019.69;;;6.36;71.86
15670;BME280;18524;45.190;5.732;2023-02-03T09:19:40;101012.63;;;6.89;69.46
15670;BME280;18524;45.190;5.732;2023-02-03T09:24:30;101019.13;;;6.53;69.86
15670;BME280;18524;45.190;5.732;2023-02-03T09:29:22;101027.50;;;6.87;68.71
15670;BME280;18524;45.190;5.732;2023-02-03T09:34:12;101035.69;;;6.77;68.26
15670;BME280;18524;45.190;5.732;2023-02-03T09:39:03;101038.25;;;6.78;67.83
15670;BME280;18524;45.190;5.732;2023-02-03T09:48:52;101022.78;;;7.45;64.65
15670;BME280;18524;45.190;5.732;2023-02-03T09:53:47;101016.06;;;7.62;63.96
15670;BME280;18524;45.190;5.732;2023-02-03T09:58:39;101028.94;;;7.43;64.49
15670;BME280;18524;45.190;5.732;2023-02-03T10:18:52;101027.91;;;8.78;59.97
15670;BME280;18524;45.190;5.732;2023-02-03T10:23:44;101024.66;;;8.93;59.64
15670;BME280;18524;45.190;5.732;2023-02-03T10:28:39;101030.97;;;9.08;58.97
15670;BME280;18524;45.190;5.732;2023-02-03T10:33:31;101025.94;;;9.03;58.32
15670;BME280;18524;45.190;5.732;2023-02-03T10:43:22;101012.34;;;9.72;55.48
15670;BME280;18524;45.190;5.732;2023-02-03T10:48:30;101016.25;;;9.99;54.58
15670;BME280;18524;45.190;5.732;2023-02-03T10:53:35;101017.16;;;10.17;52.56
15670;BME280;18524;45.190;5.732;2023-02-03T10:58:27;101008.50;;;10.15;52.59
15670;BME280;18524;45.190;5.732;2023-02-03T11:03:25;101003.16;;;10.36;51.40
15670;BME280;18524;45.190;5.732;2023-02-03T11:08:16;100988.41;;;10.85;51.33
15670;BME280;18524;45.190;5.732;2023-02-03T11:18:00;100943.84;;;11.32;49.55
15670;BME280;18524;45.190;5.732;2023-02-03T11:22:51;100925.38;;;11.34;49.05
15670;BME280;18524;45.190;5.732;2023-02-03T11:27:42;100917.66;;;11.46;46.82
15670;BME280;18524;45.190;5.732;2023-02-03T11:32:35;100918.84;;;11.41;47.19
15670;BME280;18524;45.190;5.732;2023-02-03T11:37:38;100907.06;;;11.79;47.56
15670;BME280;18524;45.190;5.732;2023-02-03T11:42:28;100905.56;;;12.05;46.83
15670;BME280;18524;45.190;5.732;2023-02-03T11:47:19;100908.78;;;12.25;46.37
15670;BME280;18524;45.190;5.732;2023-02-03T11:52:40;100900.09;;;12.95;45.81
15670;BME280;18524;45.190;5.732;2023-02-03T12:07:53;100859.84;;;13.49;43.58
15670;BME280;18524;45.190;5.732;2023-02-03T12:28:16;100866.34;;;12.31;46.13
15670;BME280;18524;45.190;5.732;2023-02-03T12:33:17;100867.59;;;12.68;45.43
15670;BME280;18524;45.190;5.732;2023-02-03T12:38:14;100849.34;;;12.50;45.83
15670;BME280;18524;45.190;5.732;2023-02-03T12:43:32;100854.00;;;12.17;45.97
15670;BME280;18524;45.190;5.732;2023-02-03T12:48:44;100855.56;;;11.91;46.86
15670;BME280;18524;45.190;5.732;2023-02-03T12:53:40;100847.38;;;11.66;47.63
15670;BME280;18524;45.190;5.732;2023-02-03T12:58:37;100839.56;;;11.80;48.00
15670;BME280;18524;45.190;5.732;2023-02-03T13:03:34;100820.50;;;11.61;48.24
15670;BME280;18524;45.190;5.732;2023-02-03T13:08:36;100815.13;;;11.78;47.97
15670;BME280;18524;45.190;5.732;2023-02-03T13:13:34;100795.44;;;11.85;48.07
15670;BME280;18524;45.190;5.732;2023-02-03T13:18:30;100802.16;;;11.75;48.22
15670;BME280;18524;45.190;5.732;2023-02-03T13:23:22;100788.50;;;11.84;48.17
15670;BME280;18524;45.190;5.732;2023-02-03T13:43:50;100780.22;;;11.30;49.76
15670;BME280;18524;45.190;5.732;2023-02-03T13:48:43;100780.16;;;11.32;49.34
15670;BME280;18524;45.190;5.732;2023-02-03T13:53:38;100777.03;;;11.25;49.27
15670;BME280;18524;45.190;5.732;2023-02-03T13:58:31;100771.50;;;11.30;49.82
15670;BME280;18524;45.190;5.732;2023-02-03T14:13:19;100752.63;;;11.23;49.82
15670;BME280;18524;45.190;5.732;2023-02-03T14:18:32;100747.56;;;11.20;49.91
15670;BME280;18524;45.190;5.732;2023-02-03T14:23:33;100738.59;;;11.38;50.02
15670;BME280;18524;45.190;5.732;2023-02-03T14:28:40;100741.53;;;11.48;50.01
15670;BME280;18524;45.190;5.732;2023-02-03T14:38:37;100716.84;;;11.50;50.19
15670;BME280;18524;45.190;5.732;2023-02-03T14:43:35;100727.72;;;11.44;50.51
15670;BME280;18524;45.190;5.732;2023-02-03T14:58:44;100697.28;;;11.56;50.40
15670;BME280;18524;45.190;5.732;2023-02-03T15:03:35;100701.78;;;11.54;50.71
15670;BME280;18524;45.190;5.732;2023-02-03T15:13:33;100694.28;;;11.76;50.54
15670;BME280;18524;45.190;5.732;2023-02-03T15:18:31;100683.31;;;11.70;50.18
15670;BME280;18524;45.190;5.732;2023-02-03T15:23:35;100683.97;;;11.73;50.77
15670;BME280;18524;45.190;5.732;2023-02-03T15:28:29;100678.03;;;11.70;51.24
15670;BME280;18524;45.190;5.732;2023-02-03T15:33:19;100675.88;;;11.76;50.38
15670;BME280;18524;45.190;5.732;2023-02-03T15:38:19;100672.78;;;11.70;50.95
15670;BME280;18524;45.190;5.732;2023-02-03T15:43:19;100680.00;;;11.66;51.04
15670;BME280;18524;45.190;5.732;2023-02-03T15:48:13;100671.09;;;11.69;52.24
15670;BME280;18524;45.190;5.732;2023-02-03T15:53:14;100680.84;;;11.52;50.62
15670;BME280;18524;45.190;5.732;2023-02-03T15:58:33;100686.53;;;11.45;51.59
15670;BME280;18524;45.190;5.732;2023-02-03T16:03:48;100696.78;;;11.49;50.75
15670;BME280;18524;45.190;5.732;2023-02-03T16:08:43;100699.78;;;11.43;52.24
15670;BME280;18524;45.190;5.732;2023-02-03T16:13:42;100696.75;;;11.35;53.42
15670;BME280;18524;45.190;5.732;2023-02-03T16:18:34;100702.28;;;11.31;53.88
15670;BME280;18524;45.190;5.732;2023-02-03T16:23:25;100706.69;;;11.30;53.96
15670;BME280;18524;45.190;5.732;2023-02-03T16:28:20;100716.72;;;11.23;54.89
15670;BME280;18524;45.190;5.732;2023-02-03T16:33:30;100713.41;;;11.20;53.98
15670;BME280;18524;45.190;5.732;2023-02-03T16:38:44;100718.41;;;11.09;55.35
15670;BME280;18524;45.190;5.732;2023-02-03T16:43:54;100698.63;;;11.03;56.33
15670;BME280;18524;45.190;5.732;2023-02-03T16:49:03;100693.53;;;11.00;55.66
15670;BME280;18524;45.190;5.732;2023-02-03T16:54:13;100697.22;;;10.82;57.29
15670;BME280;18524;45.190;5.732;2023-02-03T16:59:04;100692.47;;;10.73;56.22
15670;BME280;18524;45.190;5.732;2023-02-03T17:03:54;100693.25;;;10.75;56.83
15670;BME280;18524;45.190;5.732;2023-02-03T17:08:44;100690.88;;;10.70;58.10
15670;BME280;18524;45.190;5.732;2023-02-03T17:13:35;100683.84;;;10.71;57.06
15670;BME280;18524;45.190;5.732;2023-02-03T17:18:25;100676.19;;;10.52;57.55
15670;BME280;18524;45.190;5.732;2023-02-03T17:23:17;100664.06;;;10.65;56.85
15670;BME280;18524;45.190;5.732;2023-02-03T17:28:07;100653.22;;;10.71;57.47
15670;BME280;18524;45.190;5.732;2023-02-03T17:33:02;100661.44;;;10.65;56.96
15670;BME280;18524;45.190;5.732;2023-02-03T17:37:53;100662.88;;;10.55;57.18
15670;BME280;18524;45.190;5.732;2023-02-03T17:42:43;100679.16;;;10.46;57.53
15670;BME280;18524;45.190;5.732;2023-02-03T17:47:34;100705.22;;;10.49;58.29
15670;BME280;18524;45.190;5.732;2023-02-03T17:52:24;100693.59;;;10.53;58.30
15670;BME280;18524;45.190;5.732;2023-02-03T17:57:15;100695.72;;;10.46;59.27
15670;BME280;18524;45.190;5.732;2023-02-03T18:02:05;100679.53;;;10.38;59.91
15670;BME280;18524;45.190;5.732;2023-02-03T18:06:56;100698.31;;;10.30;60.12
15670;BME280;18524;45.190;5.732;2023-02-03T18:11:46;100714.41;;;10.24;60.36
15670;BME280;18524;45.190;5.732;2023-02-03T18:16:37;100729.59;;;10.18;60.57
15670;BME280;18524;45.190;5.732;2023-02-03T18:21:27;100716.56;;;10.16;60.59
15670;BME280;18524;45.190;5.732;2023-02-03T18:26:19;100725.84;;;10.06;60.41
15670;BME280;18524;45.190;5.732;2023-02-03T18:31:12;100732.03;;;10.05;61.16
15670;BME280;18524;45.190;5.732;2023-02-03T18:36:05;100743.19;;;10.09;60.95
15670;BME280;18524;45.190;5.732;2023-02-03T18:40:57;100740.59;;;9.91;61.86
15670;BME280;18524;45.190;5.732;2023-02-03T18:45:47;100733.97;;;9.84;61.86
15670;BME280;18524;45.190;5.732;2023-02-03T18:50:42;100745.88;;;9.74;62.12
15670;BME280;18524;45.190;5.732;2023-02-03T18:55:32;100742.00;;;9.81;61.90
15670;BME280;18524;45.190;5.732;2023-02-03T19:00:23;100754.94;;;9.84;62.22
15670;BME280;18524;45.190;5.732;2023-02-03T19:05:13;100744.78;;;9.78;62.25
15670;BME280;18524;45.190;5.732;2023-02-03T19:10:04;100749.94;;;9.62;62.89
15670;BME280;18524;45.190;5.732;2023-02-03T19:14:54;100748.88;;;9.66;62.50
15670;BME280;18524;45.190;5.732;2023-02-03T19:19:45;100747.97;;;9.67;62.88
15670;BME280;18524;45.190;5.732;2023-02-03T19:24:35;100754.56;;;9.57;62.48
15670;BME280;18524;45.190;5.732;2023-02-03T19:29:25;100762.19;;;9.62;62.40
15670;BME280;18524;45.190;5.732;2023-02-03T19:34:16;100764.13;;;9.41;63.29
15670;BME280;18524;45.190;5.732;2023-02-03T19:39:07;100751.81;;;9.43;63.04
15670;BME280;18524;45.190;5.732;2023-02-03T19:43:57;100753.88;;;9.36;63.46
15670;BME280;18524;45.190;5.732;2023-02-03T19:48:49;100743.50;;;9.35;63.55
15670;BME280;18524;45.190;5.732;2023-02-03T19:53:39;100757.00;;;9.26;64.20
15670;BME280;18524;45.190;5.732;2023-02-03T19:58:29;100749.16;;;9.26;63.98
15670;BME280;18524;45.190;5.732;2023-02-03T20:03:20;100757.53;;;9.15;63.79
15670;BME280;18524;45.190;5.732;2023-02-03T20:08:11;100744.78;;;9.26;63.42
15670;BME280;18524;45.190;5.732;2023-02-03T20:13:03;100753.84;;;9.19;63.96
15670;BME280;18524;45.190;5.732;2023-02-03T20:17:54;100754.16;;;9.13;64.43
15670;BME280;18524;45.190;5.732;2023-02-03T20:22:45;100749.63;;;9.17;63.95
15670;BME280;18524;45.190;5.732;2023-02-03T20:27:35;100749.31;;;9.05;64.59
15670;BME280;18524;45.190;5.732;2023-02-03T20:32:26;100754.53;;;9.05;63.94
15670;BME280;18524;45.190;5.732;2023-02-03T20:37:16;100762.84;;;8.77;64.00
15670;BME280;18524;45.190;5.732;2023-02-03T20:42:15;100757.34;;;8.65;64.28
15670;BME280;18524;45.190;5.732;2023-02-03T20:47:14;100754.50;;;8.69;63.55
15670;BME280;18524;45.190;5.732;2023-02-03T20:52:19;100759.88;;;8.48;64.96
15670;BME280;18524;45.190;5.732;2023-02-03T20:57:16;100759.72;;;8.32;64.94
15670;BME280;18524;45.190;5.732;2023-02-03T21:02:17;100763.06;;;8.35;65.43
15670;BME280;18524;45.190;5.732;2023-02-03T21:07:18;100759.00;;;8.28;65.45
15670;BME280;18524;45.190;5.732;2023-02-03T21:12:11;100765.16;;;8.27;66.83
15670;BME280;18524;45.190;5.732;2023-02-03T21:17:02;100768.53;;;8.29;66.95
15670;BME280;18524;45.190;5.732;2023-02-03T21:21:52;100762.28;;;8.33;66.19
15670;BME280;18524;45.190;5.732;2023-02-03T21:26:43;100749.84;;;7.99;67.15
15670;BME280;18524;45.190;5.732;2023-02-03T21:31:33;100740.88;;;8.05;67.58
15670;BME280;18524;45.190;5.732;2023-02-03T21:36:29;100761.63;;;8.08;68.36
15670;BME280;18524;45.190;5.732;2023-02-03T21:41:22;100754.06;;;8.22;67.44
15670;BME280;18524;45.190;5.732;2023-02-03T21:46:24;100760.91;;;8.25;67.58
15670;BME280;18524;45.190;5.732;2023-02-03T21:51:19;100772.22;;;8.25;67.66
15670;BME280;18524;45.190;5.732;2023-02-03T21:56:16;100787.81;;;8.27;66.90
15670;BME280;18524;45.190;5.732;2023-02-03T22:01:07;100798.00;;;8.12;66.57
15670;BME280;18524;45.190;5.732;2023-02-03T22:11:02;100817.28;;;8.10;66.45
15670;BME280;18524;45.190;5.732;2023-02-03T22:15:53;100833.31;;;7.82;66.89
15670;BME280;18524;45.190;5.732;2023-02-03T22:20:43;100826.94;;;7.67;68.14
15670;BME280;18524;45.190;5.732;2023-02-03T22:25:35;100837.06;;;7.55;68.31
15670;BME280;18524;45.190;5.732;2023-02-03T22:30:26;100825.59;;;7.37;68.39
15670;BME280;18524;45.190;5.732;2023-02-03T22:35:17;100819.22;;;7.44;68.38
15670;BME280;18524;45.190;5.732;2023-02-03T22:40:08;100811.09;;;7.30;69.18
15670;BME280;18524;45.190;5.732;2023-02-03T22:45:00;100821.66;;;7.27;69.92
15670;BME280;18524;45.190;5.732;2023-02-03T22:49:51;100830.56;;;7.43;69.19
15670;BME280;18524;45.190;5.732;2023-02-03T22:54:42;100812.19;;;7.24;69.94
15670;BME280;18524;45.190;5.732;2023-02-03T22:59:33;100819.28;;;7.20;69.54
15670;BME280;18524;45.190;5.732;2023-02-03T23:04:24;100812.88;;;7.07;70.05
15670;BME280;18524;45.190;5.732;2023-02-03T23:09:15;100825.22;;;7.02;70.82
15670;BME280;18524;45.190;5.732;2023-02-03T23:14:06;100823.91;;;7.14;70.20
15670;BME280;18524;45.190;5.732;2023-02-03T23:18:56;100827.03;;;7.00;70.86
15670;BME280;18524;45.190;5.732;2023-02-03T23:23:47;100830.63;;;6.98;71.02
15670;BME280;18524;45.190;5.732;2023-02-03T23:28:37;100828.84;;;6.98;70.42
15670;BME280;18524;45.190;5.732;2023-02-03T23:33:28;100821.63;;;6.83;72.54
15670;BME280;18524;45.190;5.732;2023-02-03T23:38:18;100809.63;;;6.79;72.63
15670;BME280;18524;45.190;5.732;2023-02-03T23:43:09;100803.88;;;6.93;71.44
15670;BME280;18524;45.190;5.732;2023-02-03T23:47:59;100813.19;;;6.76;71.55
15670;BME280;18524;45.190;5.732;2023-02-03T23:52:50;100812.66;;;6.90;71.15
15670;BME280;18524;45.190;5.732;2023-02-03T23:57:40;100817.34;;;6.82;71.41
